createdAt,value
2017-02-14T00:00:13.536Z,0.13
2017-02-14T00:01:19.654Z,0.16
2017-02-14T00:02:25.719Z,0.09
2017-02-14T00:03:30.850Z,0.1
2017-02-14T00:04:34.963Z,0.1
2017-02-14T00:05:40.096Z,0.18
2017-02-14T00:06:45.225Z,0.15
2017-02-14T00:07:49.436Z,0.06
2017-02-14T00:08:54.573Z,0.09
2017-02-14T00:10:00.675Z,0.24
2017-02-14T00:11:06.792Z,0.13
2017-02-14T00:12:10.943Z,0.09
2017-02-14T00:13:17.040Z,0.09
2017-02-14T00:14:23.134Z,0.09
2017-02-14T00:15:28.251Z,0.13
2017-02-14T00:16:34.347Z,0.1
2017-02-14T00:17:40.438Z,0.05
2017-02-14T00:18:46.522Z,0.03
2017-02-14T00:19:52.617Z,-0.01
2017-02-14T00:20:58.708Z,0.06
2017-02-14T00:22:02.865Z,-0.05
2017-02-14T00:23:08.963Z,0.07
2017-02-14T00:24:14.082Z,0.07
2017-02-14T00:25:18.241Z,0.05
2017-02-14T00:26:24.332Z,0.2
2017-02-14T00:27:29.469Z,0.06
2017-02-14T00:28:34.566Z,0.02
2017-02-14T00:29:37.735Z,0.06
2017-02-14T00:30:43.812Z,0.02
2017-02-14T00:31:49.905Z,-0.06
2017-02-14T00:32:55.040Z,0.03
2017-02-14T00:34:00.136Z,-0.12
2017-02-14T00:35:06.232Z,-0.05
2017-02-14T00:36:11.356Z,-0.13
2017-02-14T00:37:16.462Z,0
2017-02-14T00:38:22.631Z,-0.13
2017-02-14T00:39:28.717Z,-0.12
2017-02-14T00:40:32.884Z,-0.11
2017-02-14T00:41:38.008Z,-0.16
2017-02-14T00:42:44.099Z,0
2017-02-14T00:43:50.180Z,-0.13
2017-02-14T00:44:56.284Z,-0.13
2017-02-14T00:46:01.416Z,-0.15
2017-02-14T00:47:06.536Z,-0.09
2017-02-14T00:48:12.629Z,-0.13
2017-02-14T00:49:14.848Z,-0.04
2017-02-14T00:50:20.943Z,-0.19
2017-02-14T00:51:27.041Z,-0.05
2017-02-14T00:52:31.267Z,-0.12
2017-02-14T00:53:36.369Z,0.05
2017-02-14T00:54:39.545Z,0.13
2017-02-14T00:55:44.622Z,0.05
2017-02-14T00:56:48.770Z,0.05
2017-02-14T00:57:53.897Z,0.03
2017-02-14T00:58:59.989Z,0.05
2017-02-14T01:00:06.075Z,0.09
2017-02-14T01:01:11.236Z,0.13
2017-02-14T01:02:17.328Z,0.13
2017-02-14T01:03:23.416Z,0.2
2017-02-14T01:04:27.543Z,0.1
2017-02-14T01:05:33.639Z,0.03
2017-02-14T01:06:37.807Z,0.03
2017-02-14T01:07:43.888Z,0
2017-02-14T01:08:49.019Z,-0.01
2017-02-14T01:09:54.130Z,0.03
2017-02-14T01:11:00.224Z,0.24
2017-02-14T01:12:04.348Z,0.16
2017-02-14T01:13:10.461Z,0.1
2017-02-14T01:14:16.538Z,0.09
2017-02-14T01:15:20.683Z,0.18
2017-02-14T01:16:25.779Z,0.2
2017-02-14T01:17:31.961Z,0.16
2017-02-14T01:18:35.152Z,0.2
2017-02-14T01:19:40.270Z,0.13
2017-02-14T01:20:46.366Z,0.05
2017-02-14T01:21:51.507Z,0.1
2017-02-14T01:22:57.611Z,0.07
2017-02-14T01:24:00.790Z,0.2
2017-02-14T01:25:06.877Z,0.21
2017-02-14T01:26:12.955Z,0.12
2017-02-14T01:27:17.152Z,0.09
2017-02-14T01:28:20.306Z,0.06
2017-02-14T01:29:26.396Z,-0.01
2017-02-14T01:30:31.520Z,0.2
2017-02-14T01:31:37.603Z,0.07
2017-02-14T01:32:42.723Z,0.16
2017-02-14T01:33:46.894Z,0.05
2017-02-14T01:34:52.017Z,0.07
2017-02-14T01:35:58.112Z,0.1
2017-02-14T01:37:04.204Z,0.09
2017-02-14T01:38:10.288Z,0.15
2017-02-14T01:39:15.404Z,0.12
2017-02-14T01:40:20.531Z,0.1
2017-02-14T01:41:26.621Z,0.2
2017-02-14T01:42:31.744Z,0.23
2017-02-14T01:43:36.859Z,0.16
2017-02-14T01:44:42.948Z,0.13
2017-02-14T01:45:48.131Z,0.25
2017-02-14T01:46:54.241Z,0.18
2017-02-14T01:47:58.390Z,0.02
2017-02-14T01:49:04.471Z,-0.01
2017-02-14T01:50:08.615Z,0.07
2017-02-14T01:51:14.721Z,-0.11
2017-02-14T01:52:19.846Z,-0.06
2017-02-14T01:53:25.936Z,-0.04
2017-02-14T01:54:32.045Z,-0.09
2017-02-14T01:55:38.120Z,-0.09
2017-02-14T01:56:43.242Z,-0.09
2017-02-14T01:57:48.403Z,-0.09
2017-02-14T01:58:53.543Z,-0.12
2017-02-14T01:59:59.632Z,-0.15
2017-02-14T02:01:04.750Z,-0.22
2017-02-14T02:02:08.908Z,-0.26
2017-02-14T02:03:14.007Z,-0.24
2017-02-14T02:04:20.100Z,-0.29
2017-02-14T02:05:25.214Z,-0.27
2017-02-14T02:06:30.325Z,-0.26
2017-02-14T02:07:35.508Z,-0.23
2017-02-14T02:08:40.634Z,-0.37
2017-02-14T02:09:46.728Z,-0.33
2017-02-14T02:10:50.880Z,-0.34
2017-02-14T02:11:56.011Z,-0.37
2017-02-14T02:13:02.092Z,-0.44
2017-02-14T02:14:08.191Z,-0.41
2017-02-14T02:15:14.282Z,-0.47
2017-02-14T02:16:19.408Z,-0.54
2017-02-14T02:17:24.534Z,-0.52
2017-02-14T02:18:26.734Z,-0.51
2017-02-14T02:19:31.869Z,-0.48
2017-02-14T02:20:37.970Z,-0.52
2017-02-14T02:21:44.050Z,-0.6
2017-02-14T02:22:49.175Z,-0.57
2017-02-14T02:23:55.271Z,-0.57
2017-02-14T02:25:01.407Z,-0.63
2017-02-14T02:26:06.521Z,-0.54
2017-02-14T02:27:11.615Z,-0.5
2017-02-14T02:28:17.709Z,-0.5
2017-02-14T02:29:22.823Z,-0.5
2017-02-14T02:30:28.919Z,-0.54
2017-02-14T02:31:34.995Z,-0.51
2017-02-14T02:32:40.170Z,-0.55
2017-02-14T02:33:45.335Z,-0.62
2017-02-14T02:34:51.438Z,-0.62
2017-02-14T02:35:57.529Z,-0.63
2017-02-14T02:37:02.641Z,-0.68
2017-02-14T02:38:07.760Z,-0.75
2017-02-14T02:39:11.904Z,-0.68
2017-02-14T02:40:16.055Z,-0.65
2017-02-14T02:41:21.177Z,-0.68
2017-02-14T02:42:27.263Z,-0.48
2017-02-14T02:43:32.385Z,-0.52
2017-02-14T02:44:38.476Z,-0.45
2017-02-14T02:45:44.556Z,-0.57
2017-02-14T02:46:50.649Z,-0.51
2017-02-14T02:47:53.802Z,-0.54
2017-02-14T02:48:58.932Z,-0.5
2017-02-14T02:50:02.092Z,-0.34
2017-02-14T02:51:07.254Z,-0.31
2017-02-14T02:52:12.376Z,-0.19
2017-02-14T02:53:18.475Z,-0.16
2017-02-14T02:54:23.592Z,-0.05
2017-02-14T02:55:28.711Z,-0.08
2017-02-14T02:56:31.918Z,-0.05
2017-02-14T02:57:37.024Z,0.07
2017-02-14T02:58:43.114Z,0.06
2017-02-14T02:59:49.230Z,0.06
2017-02-14T03:00:55.304Z,0.2
2017-02-14T03:02:01.385Z,0.23
2017-02-14T03:03:06.480Z,0.28
2017-02-14T03:04:11.641Z,0.34
2017-02-14T03:05:17.708Z,0.31
2017-02-14T03:06:20.869Z,0.43
2017-02-14T03:07:26.967Z,0.45
2017-02-14T03:08:31.172Z,0.51
2017-02-14T03:09:36.295Z,0.64
2017-02-14T03:10:41.388Z,0.6
2017-02-14T03:11:46.518Z,0.76
2017-02-14T03:12:50.684Z,0.83
2017-02-14T03:13:56.772Z,0.72
2017-02-14T03:15:02.866Z,0.78
2017-02-14T03:16:08.954Z,0.78
2017-02-14T03:17:14.077Z,0.72
2017-02-14T03:18:20.159Z,0.85
2017-02-14T03:19:25.302Z,0.83
2017-02-14T03:20:30.426Z,0.83
2017-02-14T03:21:36.520Z,0.89
2017-02-14T03:22:41.639Z,0.92
2017-02-14T03:23:47.725Z,0.85
2017-02-14T03:24:53.815Z,0.83
2017-02-14T03:25:59.908Z,0.92
2017-02-14T03:27:05.036Z,0.88
2017-02-14T03:28:10.229Z,0.89
2017-02-14T03:29:16.319Z,0.83
2017-02-14T03:30:21.455Z,0.9
2017-02-14T03:31:26.561Z,0.85
2017-02-14T03:32:32.641Z,0.82
2017-02-14T03:33:38.737Z,0.82
2017-02-14T03:34:43.889Z,0.83
2017-02-14T03:35:49.980Z,0.72
2017-02-14T03:36:54.198Z,0.72
2017-02-14T03:38:00.288Z,0.72
2017-02-14T03:39:06.437Z,0.72
2017-02-14T03:40:11.699Z,0.79
2017-02-14T03:41:15.835Z,0.82
2017-02-14T03:42:21.919Z,0.83
2017-02-14T03:43:26.082Z,0.88
2017-02-14T03:44:30.263Z,0.82
2017-02-14T03:45:34.424Z,0.82
2017-02-14T03:46:40.561Z,0.8
2017-02-14T03:47:43.720Z,0.75
2017-02-14T03:48:49.814Z,0.79
2017-02-14T03:49:55.905Z,0.82
2017-02-14T03:51:01.021Z,0.76
2017-02-14T03:52:07.116Z,0.79
2017-02-14T03:53:12.240Z,0.76
2017-02-14T03:54:18.322Z,0.75
2017-02-14T03:55:23.438Z,0.71
2017-02-14T03:56:29.538Z,0.78
2017-02-14T03:57:34.662Z,0.7
2017-02-14T03:58:39.793Z,0.71
2017-02-14T03:59:44.917Z,0.68
2017-02-14T04:00:49.067Z,0.7
2017-02-14T04:01:55.209Z,0.65
2017-02-14T04:03:01.302Z,0.67
2017-02-14T04:04:06.422Z,0.68
2017-02-14T04:05:12.502Z,0.65
2017-02-14T04:06:17.624Z,0.62
2017-02-14T04:07:22.760Z,0.61
2017-02-14T04:08:27.843Z,0.71
2017-02-14T04:09:32.974Z,0.75
2017-02-14T04:10:39.072Z,0.68
2017-02-14T04:11:45.190Z,0.57
2017-02-14T04:12:50.311Z,0.57
2017-02-14T04:13:56.400Z,0.58
2017-02-14T04:15:01.494Z,0.57
2017-02-14T04:16:05.654Z,0.67
2017-02-14T04:17:10.779Z,0.68
2017-02-14T04:18:15.890Z,0.68
2017-02-14T04:19:20.979Z,0.6
2017-02-14T04:20:27.107Z,0.41
2017-02-14T04:21:32.224Z,0.42
2017-02-14T04:22:38.307Z,0.46
2017-02-14T04:23:44.462Z,0.45
2017-02-14T04:24:48.613Z,0.43
2017-02-14T04:25:53.716Z,0.31
2017-02-14T04:26:59.818Z,0.33
2017-02-14T04:28:04.956Z,0.25
2017-02-14T04:29:11.042Z,0.21
2017-02-14T04:30:17.131Z,0.34
2017-02-14T04:31:22.230Z,0.28
2017-02-14T04:32:28.324Z,0.43
2017-02-14T04:33:34.414Z,0.45
2017-02-14T04:34:39.547Z,0.43
2017-02-14T04:35:45.637Z,0.31
2017-02-14T04:36:50.764Z,0.3
2017-02-14T04:37:56.864Z,0.25
2017-02-14T04:39:02.949Z,0.28
2017-02-14T04:40:07.094Z,0.27
2017-02-14T04:41:13.194Z,0.25
2017-02-14T04:42:19.281Z,0.24
2017-02-14T04:43:23.408Z,0.3
2017-02-14T04:44:29.519Z,0.23
2017-02-14T04:45:34.619Z,0.16
2017-02-14T04:46:39.739Z,0.31
2017-02-14T04:47:44.825Z,0.24
2017-02-14T04:48:49.935Z,0.24
2017-02-14T04:49:55.150Z,0.3
2017-02-14T04:51:01.229Z,0.28
2017-02-14T04:52:07.342Z,0.25
2017-02-14T04:53:13.463Z,0.2
2017-02-14T04:54:17.636Z,0.23
2017-02-14T04:55:21.773Z,0.27
2017-02-14T04:56:26.916Z,0.27
2017-02-14T04:57:33.006Z,0.25
2017-02-14T04:58:38.125Z,0.24
2017-02-14T04:59:43.257Z,0.24
2017-02-14T05:00:48.378Z,0.23
2017-02-14T05:01:54.477Z,0.28
2017-02-14T05:02:59.613Z,0.31
2017-02-14T05:04:05.700Z,0.42
2017-02-14T05:05:10.824Z,0.25
2017-02-14T05:06:15.946Z,0.28
2017-02-14T05:07:22.062Z,0.3
2017-02-14T05:08:27.179Z,0.28
2017-02-14T05:09:33.267Z,0.23
2017-02-14T05:10:38.391Z,0.3
2017-02-14T05:11:42.545Z,0.16
2017-02-14T05:12:48.627Z,0.13
2017-02-14T05:13:52.785Z,0.07
2017-02-14T05:14:58.877Z,-0.05
2017-02-14T05:16:04.967Z,0.1
2017-02-14T05:17:10.087Z,-0.01
2017-02-14T05:18:15.214Z,0.06
2017-02-14T05:19:20.335Z,0.03
2017-02-14T05:20:25.460Z,0.09
2017-02-14T05:21:31.548Z,0.02
2017-02-14T05:22:36.635Z,0
2017-02-14T05:23:42.747Z,0.06
2017-02-14T05:24:47.932Z,0.05
2017-02-14T05:25:54.015Z,0.09
2017-02-14T05:27:00.132Z,0.09
2017-02-14T05:28:06.227Z,-0.01
2017-02-14T05:29:11.321Z,0.12
2017-02-14T05:30:16.436Z,0.1
2017-02-14T05:31:22.525Z,0.07
2017-02-14T05:32:28.613Z,0.06
2017-02-14T05:33:32.753Z,0
2017-02-14T05:34:36.887Z,-0.08
2017-02-14T05:35:41.979Z,0
2017-02-14T05:36:48.059Z,-0.08
2017-02-14T05:37:54.268Z,-0.05
2017-02-14T05:39:00.359Z,-0.11
2017-02-14T05:40:06.455Z,-0.15
2017-02-14T05:41:10.615Z,-0.15
2017-02-14T05:42:16.696Z,0.02
2017-02-14T05:43:20.861Z,-0.09
2017-02-14T05:44:25.984Z,-0.05
2017-02-14T05:45:30.134Z,-0.09
2017-02-14T05:46:35.258Z,-0.13
2017-02-14T05:47:40.382Z,-0.26
2017-02-14T05:48:45.500Z,-0.18
2017-02-14T05:49:50.629Z,-0.22
2017-02-14T05:50:55.775Z,-0.23
2017-02-14T05:52:01.858Z,-0.3
2017-02-14T05:53:06.993Z,-0.23
2017-02-14T05:54:13.074Z,-0.24
2017-02-14T05:55:19.161Z,-0.26
2017-02-14T05:56:23.321Z,-0.3
2017-02-14T05:57:29.413Z,-0.34
2017-02-14T05:58:35.502Z,-0.37
2017-02-14T05:59:41.604Z,-0.42
2017-02-14T06:00:47.710Z,-0.5
2017-02-14T06:01:53.802Z,-0.55
2017-02-14T06:02:59.882Z,-0.48
2017-02-14T06:04:06.025Z,-0.5
2017-02-14T06:05:12.113Z,-0.47
2017-02-14T06:06:18.205Z,-0.44
2017-02-14T06:07:23.336Z,-0.51
2017-02-14T06:08:28.496Z,-0.51
2017-02-14T06:09:33.624Z,-0.47
2017-02-14T06:10:38.745Z,-0.51
2017-02-14T06:11:43.866Z,-0.47
2017-02-14T06:12:48.980Z,-0.44
2017-02-14T06:13:55.071Z,-0.39
2017-02-14T06:15:00.201Z,-0.44
2017-02-14T06:16:05.320Z,-0.57
2017-02-14T06:17:10.443Z,-0.55
2017-02-14T06:18:16.544Z,-0.52
2017-02-14T06:19:22.654Z,-0.59
2017-02-14T06:20:28.732Z,-0.52
2017-02-14T06:21:33.871Z,-0.47
2017-02-14T06:22:38.966Z,-0.54
2017-02-14T06:23:45.056Z,-0.55
2017-02-14T06:24:51.147Z,-0.47
2017-02-14T06:25:57.248Z,-0.59
2017-02-14T06:27:03.319Z,-0.57
2017-02-14T06:28:09.413Z,-0.66
2017-02-14T06:29:14.508Z,-0.59
2017-02-14T06:30:20.592Z,-0.54
2017-02-14T06:31:24.727Z,-0.57
2017-02-14T06:32:28.874Z,-0.62
2017-02-14T06:33:34.979Z,-0.57
2017-02-14T06:34:40.115Z,-0.62
2017-02-14T06:35:46.201Z,-0.6
2017-02-14T06:36:51.352Z,-0.63
2017-02-14T06:37:56.480Z,-0.65
2017-02-14T06:39:02.568Z,-0.7
2017-02-14T06:40:06.830Z,-0.75
2017-02-14T06:41:12.914Z,-0.8
2017-02-14T06:42:18.037Z,-0.69
2017-02-14T06:43:22.196Z,-0.66
2017-02-14T06:44:27.317Z,-0.66
2017-02-14T06:45:33.440Z,-0.62
2017-02-14T06:46:38.533Z,-0.62
2017-02-14T06:47:44.643Z,-0.57
2017-02-14T06:48:49.742Z,-0.62
2017-02-14T06:49:54.865Z,-0.59
2017-02-14T06:51:00.953Z,-0.62
2017-02-14T06:52:06.087Z,-0.59
2017-02-14T06:53:12.172Z,-0.48
2017-02-14T06:54:18.294Z,-0.5
2017-02-14T06:55:22.451Z,-0.45
2017-02-14T06:56:26.603Z,-0.45
2017-02-14T06:57:31.718Z,-0.42
2017-02-14T06:58:37.807Z,-0.41
2017-02-14T06:59:43.894Z,-0.37
2017-02-14T07:00:49.979Z,-0.39
2017-02-14T07:01:56.063Z,-0.42
2017-02-14T07:03:02.205Z,-0.37
2017-02-14T07:04:07.309Z,-0.34
2017-02-14T07:05:11.504Z,-0.34
2017-02-14T07:06:17.578Z,-0.23
2017-02-14T07:07:23.679Z,-0.22
2017-02-14T07:08:29.769Z,-0.18
2017-02-14T07:09:34.882Z,-0.18
2017-02-14T07:10:41.017Z,-0.22
2017-02-14T07:11:46.138Z,-0.22
2017-02-14T07:12:51.273Z,-0.18
2017-02-14T07:13:56.394Z,-0.15
2017-02-14T07:15:01.511Z,-0.11
2017-02-14T07:16:05.672Z,0
2017-02-14T07:17:11.768Z,0
2017-02-14T07:18:16.890Z,0.02
2017-02-14T07:19:22.012Z,0.02
2017-02-14T07:20:26.135Z,0.13
2017-02-14T07:21:32.215Z,0.09
2017-02-14T07:22:36.379Z,0.12
2017-02-14T07:23:42.480Z,0.25
2017-02-14T07:24:47.574Z,0.28
2017-02-14T07:25:53.655Z,0.52
2017-02-14T07:26:59.783Z,0.89
2017-02-14T07:28:05.848Z,1.43
2017-02-14T07:29:10.970Z,1.83
2017-02-14T07:30:17.070Z,2.3
2017-02-14T07:31:23.164Z,2.77
2017-02-14T07:32:27.277Z,3.15
2017-02-14T07:33:32.470Z,3.62
2017-02-14T07:34:37.579Z,3.96
2017-02-14T07:35:42.704Z,4.19
2017-02-14T07:36:48.842Z,4.39
2017-02-14T07:37:52.993Z,4.67
2017-02-14T07:38:57.138Z,4.83
2017-02-14T07:40:03.215Z,5.09
2017-02-14T07:41:09.310Z,5.3
2017-02-14T07:42:13.467Z,5.48
2017-02-14T07:43:18.603Z,5.77
2017-02-14T07:44:21.794Z,6.03
2017-02-14T07:45:25.959Z,6.33
2017-02-14T07:46:32.045Z,6.71
2017-02-14T07:47:37.198Z,6.81
2017-02-14T07:48:41.302Z,6.71
2017-02-14T07:49:46.399Z,6.83
2017-02-14T07:50:51.533Z,6.83
2017-02-14T07:51:57.632Z,7.15
2017-02-14T07:53:02.762Z,7.24
2017-02-14T07:54:07.895Z,7.38
2017-02-14T07:55:13.044Z,7.6
2017-02-14T07:56:18.169Z,7.4
2017-02-14T07:57:24.269Z,7.35
2017-02-14T07:58:28.427Z,7.74
2017-02-14T07:59:33.555Z,8.1
2017-02-14T08:00:39.645Z,8
2017-02-14T08:01:44.769Z,7.89
2017-02-14T08:02:50.868Z,8.04
2017-02-14T08:03:53.061Z,8.17
2017-02-14T08:04:59.164Z,8.18
2017-02-14T08:06:05.261Z,8.22
2017-02-14T08:07:11.361Z,8.57
2017-02-14T08:08:16.481Z,8.9
2017-02-14T08:09:21.620Z,9.15
2017-02-14T08:10:27.737Z,9.52
2017-02-14T08:11:31.880Z,9.5
2017-02-14T08:12:36.005Z,9.68
2017-02-14T08:13:41.143Z,9.75
2017-02-14T08:14:46.277Z,9.53
2017-02-14T08:15:52.374Z,9.53
2017-02-14T08:16:57.505Z,9.4
2017-02-14T08:18:03.607Z,9.38
2017-02-14T08:19:08.732Z,9.56
2017-02-14T08:20:12.919Z,9.64
2017-02-14T08:21:18.051Z,9.85
2017-02-14T08:22:23.226Z,9.85
2017-02-14T08:23:29.394Z,9.97
2017-02-14T08:24:31.607Z,10.39
2017-02-14T08:25:35.762Z,10.66
2017-02-14T08:26:40.884Z,10.4
2017-02-14T08:27:46.015Z,10.65
2017-02-14T08:28:51.144Z,10.59
2017-02-14T08:29:56.247Z,10.66
2017-02-14T08:31:00.413Z,10.94
2017-02-14T08:32:05.509Z,11.21
2017-02-14T08:33:09.651Z,11.35
2017-02-14T08:34:15.743Z,11.46
2017-02-14T08:35:18.983Z,11.57
2017-02-14T08:36:25.079Z,11.53
2017-02-14T08:37:31.179Z,11.34
2017-02-14T08:38:37.302Z,11.29
2017-02-14T08:39:42.570Z,11.21
2017-02-14T08:40:46.718Z,11.02
2017-02-14T08:41:52.809Z,10.59
2017-02-14T08:42:57.940Z,10.46
2017-02-14T08:44:04.043Z,10.98
2017-02-14T08:45:10.144Z,11.35
2017-02-14T08:46:16.256Z,11.57
2017-02-14T08:47:22.372Z,11.34
2017-02-14T08:48:26.531Z,11.44
2017-02-14T08:49:31.670Z,11.67
2017-02-14T08:50:37.774Z,12.04
2017-02-14T08:51:43.888Z,12.3
2017-02-14T08:52:48.119Z,12.41
2017-02-14T08:53:54.186Z,12.09
2017-02-14T08:55:00.284Z,11.68
2017-02-14T08:56:05.402Z,11.49
2017-02-14T08:57:11.585Z,10.84
2017-02-14T08:58:17.661Z,10.74
2017-02-14T08:59:22.759Z,11.02
2017-02-14T09:00:27.891Z,11.61
2017-02-14T09:01:34.033Z,12.06
2017-02-14T09:02:38.180Z,12.13
2017-02-14T09:03:43.316Z,12.12
2017-02-14T09:04:49.421Z,12.52
2017-02-14T09:05:54.589Z,12.48
2017-02-14T09:07:00.692Z,12.6
2017-02-14T09:08:04.865Z,12.62
2017-02-14T09:09:10.021Z,12.69
2017-02-14T09:10:16.097Z,12.19
2017-02-14T09:11:20.294Z,12.13
2017-02-14T09:12:25.425Z,12.29
2017-02-14T09:13:30.522Z,12.05
2017-02-14T09:14:35.666Z,12.49
2017-02-14T09:15:39.872Z,12.67
2017-02-14T09:16:43.011Z,12.89
2017-02-14T09:17:48.179Z,12.51
2017-02-14T09:18:54.283Z,12.63
2017-02-14T09:19:59.506Z,12.51
2017-02-14T09:21:00.760Z,12.51
2017-02-14T09:22:06.870Z,12.62
2017-02-14T09:23:12.980Z,12.63
2017-02-14T09:24:18.135Z,12.69
2017-02-14T09:25:23.267Z,12.93
2017-02-14T09:26:29.391Z,13.46
2017-02-14T09:27:34.644Z,13.27
2017-02-14T09:28:40.749Z,13.11
2017-02-14T09:29:44.889Z,13.14
2017-02-14T09:30:50.028Z,13.06
2017-02-14T09:31:55.167Z,13.56
2017-02-14T09:33:00.291Z,13.46
2017-02-14T09:34:06.405Z,13.49
2017-02-14T09:35:12.529Z,13.63
2017-02-14T09:36:17.673Z,13.71
2017-02-14T09:37:23.781Z,14.14
2017-02-14T09:38:29.887Z,14.28
2017-02-14T09:39:36.071Z,14.14
2017-02-14T09:40:41.197Z,14.37
2017-02-14T09:41:43.435Z,14.49
2017-02-14T09:42:49.591Z,14.16
2017-02-14T09:43:55.682Z,14.06
2017-02-14T09:44:58.882Z,13.8
2017-02-14T09:46:05.000Z,13.77
2017-02-14T09:47:11.084Z,13.56
2017-02-14T09:48:17.207Z,13.17
2017-02-14T09:49:22.305Z,13.09
2017-02-14T09:50:27.451Z,13.09
2017-02-14T09:51:32.602Z,13.18
2017-02-14T09:52:38.707Z,13.09
2017-02-14T09:53:44.817Z,13.04
2017-02-14T09:54:50.926Z,13.65
2017-02-14T09:55:57.034Z,13.54
2017-02-14T09:57:03.171Z,13.56
2017-02-14T09:58:09.263Z,13.73
2017-02-14T09:59:14.414Z,14.13
2017-02-14T10:00:20.521Z,14.34
2017-02-14T10:01:26.633Z,14.46
2017-02-14T10:02:30.819Z,14.35
2017-02-14T10:03:36.907Z,14.43
2017-02-14T10:04:43.023Z,14.56
2017-02-14T10:05:49.121Z,14.6
2017-02-14T10:06:55.220Z,14.78
2017-02-14T10:07:58.431Z,15.05
2017-02-14T10:09:04.533Z,15.26
2017-02-14T10:10:10.655Z,15.27
2017-02-14T10:11:15.817Z,14.83
2017-02-14T10:12:20.065Z,14.87
2017-02-14T10:13:25.185Z,14.94
2017-02-14T10:14:31.292Z,14.91
2017-02-14T10:15:36.413Z,15.12
2017-02-14T10:16:42.539Z,15.42
2017-02-14T10:17:48.646Z,15.33
2017-02-14T10:18:53.806Z,14.9
2017-02-14T10:19:59.895Z,15.02
2017-02-14T10:21:05.006Z,15.2
2017-02-14T10:22:10.234Z,15.21
2017-02-14T10:23:15.330Z,15.28
2017-02-14T10:24:21.412Z,15.52
2017-02-14T10:25:26.550Z,15.63
2017-02-14T10:26:32.793Z,15.46
2017-02-14T10:27:38.908Z,15.41
2017-02-14T10:28:44.046Z,15.59
2017-02-14T10:29:50.193Z,15.54
2017-02-14T10:30:56.301Z,15.45
2017-02-14T10:32:01.546Z,15.49
2017-02-14T10:33:07.654Z,15.45
2017-02-14T10:34:12.794Z,15.41
2017-02-14T10:35:17.908Z,15.31
2017-02-14T10:36:24.017Z,15.49
2017-02-14T10:37:30.126Z,15.43
2017-02-14T10:38:35.262Z,15.52
2017-02-14T10:39:39.432Z,15.72
2017-02-14T10:40:43.604Z,15.84
2017-02-14T10:41:49.724Z,15.74
2017-02-14T10:42:53.872Z,15.74
2017-02-14T10:43:59.990Z,16.15
2017-02-14T10:45:05.163Z,16.4
2017-02-14T10:46:09.432Z,16.41
2017-02-14T10:47:12.598Z,16.85
2017-02-14T10:48:18.704Z,17.15
2017-02-14T10:49:23.833Z,17.43
2017-02-14T10:50:29.946Z,17.66
2017-02-14T10:51:35.081Z,17.69
2017-02-14T10:52:40.220Z,17.79
2017-02-14T10:53:44.391Z,17.87
2017-02-14T10:54:48.596Z,17.84
2017-02-14T10:55:54.780Z,17.46
2017-02-14T10:57:00.899Z,16.93
2017-02-14T10:58:06.039Z,16.73
2017-02-14T10:59:11.155Z,16.68
2017-02-14T11:00:16.302Z,15.97
2017-02-14T11:01:21.454Z,15.82
2017-02-14T11:02:27.558Z,15.52
2017-02-14T11:03:33.672Z,15.06
2017-02-14T11:04:36.841Z,15.08
2017-02-14T11:05:42.988Z,15.06
2017-02-14T11:06:48.113Z,15.11
2017-02-14T11:07:54.259Z,14.78
2017-02-14T11:08:59.449Z,14.81
2017-02-14T11:10:04.562Z,14.6
2017-02-14T11:11:08.736Z,14.19
2017-02-14T11:12:14.838Z,13.94
2017-02-14T11:13:19.963Z,13.73
2017-02-14T11:14:24.585Z,13.2
2017-02-14T11:15:30.685Z,12.7
2017-02-14T11:16:36.793Z,12.7
2017-02-14T11:17:42.903Z,12.42
2017-02-14T11:18:48.052Z,12.19
2017-02-14T11:19:54.160Z,11.93
2017-02-14T11:20:58.342Z,11.59
2017-02-14T11:22:03.539Z,11.19
2017-02-14T11:23:08.642Z,11.06
2017-02-14T11:24:11.808Z,10.91
2017-02-14T11:25:14.991Z,10.89
2017-02-14T11:26:21.094Z,10.59
2017-02-14T11:27:24.282Z,10.53
2017-02-14T11:28:30.382Z,10.53
2017-02-14T11:29:36.494Z,10.6
2017-02-14T11:30:42.629Z,10.43
2017-02-14T11:31:46.779Z,10.43
2017-02-14T11:32:52.883Z,10.26
2017-02-14T11:33:57.044Z,10.25
2017-02-14T11:35:01.178Z,10.15
2017-02-14T11:36:07.278Z,10
2017-02-14T11:37:11.444Z,9.91
2017-02-14T11:38:15.586Z,9.89
2017-02-14T11:39:21.698Z,9.81
2017-02-14T11:40:26.837Z,9.63
2017-02-14T11:41:31.938Z,9.57
2017-02-14T11:42:37.065Z,9.56
2017-02-14T11:43:43.164Z,9.43
2017-02-14T11:44:49.280Z,9.32
2017-02-14T11:45:55.360Z,9.25
2017-02-14T11:46:59.524Z,9.21
2017-02-14T11:48:03.698Z,9.15
2017-02-14T11:49:07.953Z,9.05
2017-02-14T11:50:14.048Z,9.05
2017-02-14T11:51:20.166Z,9.1
2017-02-14T11:52:26.266Z,9.05
2017-02-14T11:53:31.390Z,9.06
2017-02-14T11:54:37.505Z,9.06
2017-02-14T11:55:42.622Z,9.12
2017-02-14T11:56:48.755Z,9.12
2017-02-14T11:57:52.882Z,9.12
2017-02-14T11:58:58.011Z,9.12
2017-02-14T12:00:04.127Z,9.06
2017-02-14T12:01:10.207Z,9.18
2017-02-14T12:02:15.338Z,9.18
2017-02-14T12:03:21.460Z,9.06
2017-02-14T12:04:26.548Z,8.97
2017-02-14T12:05:31.677Z,8.9
2017-02-14T12:06:37.776Z,9.01
2017-02-14T12:07:42.881Z,8.97
2017-02-14T12:08:48.014Z,8.96
2017-02-14T12:09:54.109Z,8.97
2017-02-14T12:10:59.239Z,8.84
2017-02-14T12:12:04.379Z,8.79
2017-02-14T12:13:09.469Z,8.76
2017-02-14T12:14:14.578Z,8.73
2017-02-14T12:15:19.760Z,8.88
2017-02-14T12:16:24.890Z,8.87
2017-02-14T12:17:30.992Z,8.83
2017-02-14T12:18:37.085Z,8.81
2017-02-14T12:19:43.191Z,8.87
2017-02-14T12:20:49.283Z,8.81
2017-02-14T12:21:55.371Z,8.87
2017-02-14T12:23:00.501Z,8.93
2017-02-14T12:24:05.643Z,8.97
2017-02-14T12:25:09.813Z,8.96
2017-02-14T12:26:15.878Z,9.06
2017-02-14T12:27:21.979Z,9.16
2017-02-14T12:28:28.102Z,9.15
2017-02-14T12:29:34.300Z,9.16
2017-02-14T12:30:38.468Z,9.21
2017-02-14T12:31:43.657Z,9.13
2017-02-14T12:32:48.755Z,9.12
2017-02-14T12:33:52.883Z,9.18
2017-02-14T12:34:58.991Z,9.09
2017-02-14T12:36:04.123Z,9.12
2017-02-14T12:37:10.219Z,9.23
2017-02-14T12:38:15.350Z,9.25
2017-02-14T12:39:21.464Z,9.25
2017-02-14T12:40:26.588Z,9.27
2017-02-14T12:41:31.725Z,9.12
2017-02-14T12:42:37.825Z,9.15
2017-02-14T12:43:41.947Z,9.16
2017-02-14T12:44:48.042Z,9.13
2017-02-14T12:45:52.174Z,9.16
2017-02-14T12:46:57.273Z,9.16
2017-02-14T12:48:02.411Z,9.12
2017-02-14T12:49:06.560Z,9.18
2017-02-14T12:50:11.658Z,9.28
2017-02-14T12:51:17.763Z,9.3
2017-02-14T12:52:22.899Z,9.27
2017-02-14T12:53:29.006Z,9.28
2017-02-14T12:54:33.175Z,9.28
2017-02-14T12:55:39.276Z,9.32
2017-02-14T12:56:45.377Z,9.3
2017-02-14T12:57:50.490Z,9.28
2017-02-14T12:58:56.586Z,9.28
2017-02-14T13:00:01.735Z,9.25
2017-02-14T13:01:07.839Z,9.3
2017-02-14T13:02:12.976Z,9.24
2017-02-14T13:03:19.076Z,9.38
2017-02-14T13:04:25.177Z,9.25
2017-02-14T13:05:29.389Z,9.31
2017-02-14T13:06:34.474Z,9.25
2017-02-14T13:07:40.702Z,9.25
2017-02-14T13:08:46.802Z,9.27
2017-02-14T13:09:51.935Z,9.42
2017-02-14T13:10:58.047Z,9.45
2017-02-14T13:12:04.126Z,9.43
2017-02-14T13:13:10.203Z,9.4
2017-02-14T13:14:16.318Z,9.39
2017-02-14T13:15:21.439Z,9.46
2017-02-14T13:16:26.570Z,9.42
2017-02-14T13:17:32.680Z,9.48
2017-02-14T13:18:36.856Z,9.49
2017-02-14T13:19:43.004Z,9.53
2017-02-14T13:20:48.148Z,9.52
2017-02-14T13:21:53.272Z,9.53
2017-02-14T13:22:57.442Z,9.53
2017-02-14T13:24:02.570Z,9.49
2017-02-14T13:25:08.726Z,9.58
2017-02-14T13:26:11.942Z,9.52
2017-02-14T13:27:17.078Z,9.49
2017-02-14T13:28:22.270Z,9.5
2017-02-14T13:29:28.365Z,9.53
2017-02-14T13:30:34.483Z,9.57
2017-02-14T13:31:38.673Z,9.58
2017-02-14T13:32:42.857Z,9.58
2017-02-14T13:33:47.071Z,9.53
2017-02-14T13:34:53.184Z,9.56
2017-02-14T13:35:57.345Z,9.61
2017-02-14T13:37:03.427Z,9.63
2017-02-14T13:38:07.652Z,9.61
2017-02-14T13:39:12.794Z,9.68
2017-02-14T13:40:15.992Z,9.7
2017-02-14T13:41:21.120Z,9.6
2017-02-14T13:42:27.227Z,9.73
2017-02-14T13:43:33.363Z,9.68
2017-02-14T13:44:38.467Z,9.7
2017-02-14T13:45:43.608Z,9.73
2017-02-14T13:46:49.718Z,9.73
2017-02-14T13:47:55.859Z,9.64
2017-02-14T13:49:01.035Z,9.68
2017-02-14T13:50:07.149Z,9.67
2017-02-14T13:51:11.325Z,9.64
2017-02-14T13:52:16.460Z,9.7
2017-02-14T13:53:21.623Z,9.68
2017-02-14T13:54:25.757Z,9.75
2017-02-14T13:55:30.897Z,9.67
2017-02-14T13:56:36.048Z,9.68
2017-02-14T13:57:42.259Z,9.66
2017-02-14T13:58:46.343Z,9.76
2017-02-14T13:59:52.544Z,9.78
2017-02-14T14:00:56.702Z,9.73
2017-02-14T14:02:02.803Z,9.76
2017-02-14T14:03:07.913Z,9.71
2017-02-14T14:04:14.020Z,9.76
2017-02-14T14:05:20.117Z,9.73
2017-02-14T14:06:26.229Z,9.78
2017-02-14T14:07:32.341Z,9.82
2017-02-14T14:08:38.441Z,9.81
2017-02-14T14:09:44.559Z,9.82
2017-02-14T14:10:50.654Z,9.86
2017-02-14T14:11:55.899Z,9.85
2017-02-14T14:12:59.965Z,9.81
2017-02-14T14:14:06.061Z,9.82
2017-02-14T14:15:12.158Z,9.83
2017-02-14T14:16:17.308Z,9.83
2017-02-14T14:17:21.500Z,9.88
2017-02-14T14:18:27.595Z,9.86
2017-02-14T14:19:32.928Z,9.83
2017-02-14T14:20:38.126Z,9.85